North Fork, Idaho
Current Conditions -  °F | °C
As of 2:35 AM on Sunday 26 Oct 2014 (Local Time) from KSMN Reporting Station
Few Clouds Few Clouds  
Wind Chill:   Ceiling: Unl
Heat Index:   Visibility: 10mi
Dew Point:   Wind: 6mph
Humidity: 62%   Direction: 10°N
Pressure: 29.78"   Gusts: NA
Location:  45.41°N, 114°W
Report Text: KSMN 260835Z AUTO 01005KT 10SM FEW075 09/02 A2978 RMK AO1
Loading
Personal Weather Stations






























Interactive Weather Map
Tropical Storm Tracking
New forecast layout! Learn more

10-Day Weather Forecast

Advertisements
Track Severe Weather on mobile